Terminal Aerodrome Forecast
Issued by NWS Wichita, KS

Home | Current Version | Previous Version | Text Only | Print | Product List | Glossary On
Versions: 1 2 3 4 5 6 7 8 9 10 11 12 13 14 15 16 17 18 19
860
FTUS43 KICT 250520
TAFICT
TAF
KICT 250520Z 2506/2606 34016G24KT 4SM SHRA OVC015
     FM251000 34010KT 5SM SHRA OVC008
     FM252100 35009KT P6SM VCSH OVC015
     FM260000 34010G18KT P6SM BKN045
     FM260400 35006KT P6SM SCT200=

USA.gov is the U.S. government's official web portal to all federal, state and local government web resources and services.